createdAt,value
2023-04-14T00:00:12.106Z,87304.00
2023-04-14T00:01:12.094Z,87306.00
2023-04-14T00:02:12.135Z,87306.00
2023-04-14T00:03:12.255Z,87302.00
2023-04-14T00:04:12.155Z,87300.00
2023-04-14T00:05:12.080Z,87298.00
2023-04-14T00:06:12.023Z,87298.00
2023-04-14T00:07:12.000Z,87298.00
2023-04-14T00:08:11.988Z,87296.00
2023-04-14T00:09:11.968Z,87296.00
2023-04-14T00:10:11.985Z,87298.00
2023-04-14T00:11:11.955Z,87298.00
2023-04-14T00:12:11.935Z,87298.00
2023-04-14T00:13:11.913Z,87298.00
2023-04-14T00:14:11.885Z,87298.00
2023-04-14T00:15:11.867Z,87296.00
2023-04-14T00:16:11.855Z,87296.00
2023-04-14T00:17:11.887Z,87292.00
2023-04-14T00:18:11.834Z,87292.00
2023-04-14T00:19:12.134Z,87290.00
2023-04-14T00:20:11.824Z,87290.00
2023-04-14T00:21:11.777Z,87288.00
2023-04-14T00:22:11.758Z,87284.00
2023-04-14T00:23:11.748Z,87284.00
2023-04-14T00:24:11.726Z,87284.00
2023-04-14T00:25:11.732Z,87284.00
2023-04-14T00:26:11.686Z,87284.00
2023-04-14T00:27:11.664Z,87286.00
2023-04-14T00:28:11.641Z,87282.00
2023-04-14T00:29:11.620Z,87286.00
2023-04-14T00:30:11.600Z,87286.00
2023-04-14T00:31:11.632Z,87286.00
2023-04-14T00:32:11.556Z,87286.00
2023-04-14T00:33:11.545Z,87280.00
2023-04-14T00:34:11.510Z,87282.00
2023-04-14T00:35:11.482Z,87282.00
2023-04-14T00:36:11.473Z,87284.00
2023-04-14T00:37:11.446Z,87282.00
2023-04-14T00:38:11.433Z,87284.00
2023-04-14T00:39:11.427Z,87284.00
2023-04-14T00:40:11.452Z,87288.00
2023-04-14T00:41:11.379Z,87286.00
2023-04-14T00:42:11.379Z,87286.00
2023-04-14T00:43:11.340Z,87290.00
2023-04-14T00:44:11.311Z,87290.00
2023-04-14T00:45:11.305Z,87290.00
2023-04-14T00:46:11.298Z,87290.00
2023-04-14T00:47:11.252Z,87292.00
2023-04-14T00:48:11.240Z,87292.00
2023-04-14T00:49:11.216Z,87294.00
2023-04-14T00:50:11.229Z,87292.00
2023-04-14T00:51:11.200Z,87290.00
2023-04-14T00:52:11.162Z,87292.00
2023-04-14T00:53:11.155Z,87292.00
2023-04-14T00:54:11.123Z,87294.00
2023-04-14T00:55:11.118Z,87294.00
2023-04-14T00:56:11.119Z,87296.00
2023-04-14T00:57:11.067Z,87296.00
2023-04-14T00:58:11.098Z,87290.00
2023-04-14T00:59:11.039Z,87292.00
2023-04-14T01:00:11.040Z,87290.00
2023-04-14T01:01:11.009Z,87290.00
2023-04-14T01:02:11.139Z,87286.00
2023-04-14T01:03:11.181Z,87288.00
2023-04-14T01:04:11.195Z,87288.00
2023-04-14T01:05:11.067Z,87288.00
2023-04-14T01:06:11.027Z,87286.00
2023-04-14T01:07:10.970Z,87286.00
2023-04-14T01:08:10.974Z,87284.00
2023-04-14T01:09:10.980Z,87284.00
2023-04-14T01:10:10.969Z,87284.00
2023-04-14T01:11:10.972Z,87282.00
2023-04-14T01:12:10.964Z,87282.00
2023-04-14T01:13:10.965Z,87278.00
2023-04-14T01:14:10.971Z,87280.00
2023-04-14T01:15:10.978Z,87280.00
2023-04-14T01:16:11.054Z,87278.00
2023-04-14T01:17:10.969Z,87276.00
2023-04-14T01:18:11.009Z,87274.00
2023-04-14T01:19:11.002Z,87274.00
2023-04-14T01:20:10.984Z,87274.00
2023-04-14T01:21:10.977Z,87271.00
2023-04-14T01:22:11.014Z,87271.00
2023-04-14T01:23:10.972Z,87264.00
2023-04-14T01:24:10.974Z,87261.00
2023-04-14T01:25:10.977Z,87261.00
2023-04-14T01:26:10.982Z,87257.00
2023-04-14T01:27:10.967Z,87255.00
2023-04-14T01:28:10.963Z,87253.00
2023-04-14T01:29:10.951Z,87247.00
2023-04-14T01:30:10.950Z,87247.00
2023-04-14T01:31:10.957Z,87247.00
2023-04-14T01:32:10.964Z,87245.00
2023-04-14T01:33:10.945Z,87234.00
2023-04-14T01:34:10.927Z,87230.00
2023-04-14T01:35:10.930Z,87228.00
2023-04-14T01:36:10.928Z,87222.00
2023-04-14T01:37:10.920Z,87216.00
2023-04-14T01:38:10.899Z,87218.00
2023-04-14T01:39:10.899Z,87220.00
2023-04-14T01:40:10.898Z,87220.00
2023-04-14T01:41:10.910Z,87224.00
2023-04-14T01:42:10.891Z,87228.00
2023-04-14T01:43:10.877Z,87232.00
2023-04-14T01:44:10.873Z,87232.00
2023-04-14T01:45:10.888Z,87243.00
2023-04-14T01:46:10.937Z,87243.00
2023-04-14T01:47:10.873Z,87241.00
2023-04-14T01:48:10.923Z,87234.00
2023-04-14T01:49:10.890Z,87228.00
2023-04-14T01:50:10.885Z,87226.00
2023-04-14T01:51:10.864Z,87224.00
2023-04-14T01:52:10.857Z,87224.00
2023-04-14T01:53:10.840Z,87220.00
2023-04-14T01:54:10.824Z,87226.00
2023-04-14T01:55:10.803Z,87228.00
2023-04-14T01:56:10.785Z,87226.00
2023-04-14T01:57:10.780Z,87226.00
2023-04-14T01:58:10.761Z,87226.00
2023-04-14T01:59:10.753Z,87226.00
2023-04-14T02:00:10.737Z,87226.00
2023-04-14T02:01:10.846Z,87222.00
2023-04-14T02:02:10.763Z,87222.00
2023-04-14T02:03:10.801Z,87224.00
2023-04-14T02:04:10.739Z,87222.00
2023-04-14T02:05:10.722Z,87218.00
2023-04-14T02:06:10.698Z,87218.00
2023-04-14T02:07:10.672Z,87220.00
2023-04-14T02:08:10.668Z,87222.00
2023-04-14T02:09:10.659Z,87224.00
2023-04-14T02:10:10.659Z,87224.00
2023-04-14T02:11:10.639Z,87224.00
2023-04-14T02:12:10.639Z,87222.00
2023-04-14T02:13:10.637Z,87220.00
2023-04-14T02:14:10.616Z,87220.00
2023-04-14T02:15:10.601Z,87218.00
2023-04-14T02:16:10.657Z,87216.00
2023-04-14T02:17:10.584Z,87212.00
2023-04-14T02:18:10.569Z,87214.00
2023-04-14T02:19:10.561Z,87212.00
2023-04-14T02:20:10.546Z,87212.00
2023-04-14T02:21:10.511Z,87212.00
2023-04-14T02:22:10.528Z,87211.00
2023-04-14T02:23:10.485Z,87216.00
2023-04-14T02:24:10.473Z,87218.00
2023-04-14T02:25:10.488Z,87224.00
2023-04-14T02:26:10.455Z,87226.00
2023-04-14T02:27:10.515Z,87232.00
2023-04-14T02:28:10.430Z,87230.00
2023-04-14T02:29:10.435Z,87232.00
2023-04-14T02:30:10.430Z,87232.00
2023-04-14T02:31:10.464Z,87232.00
2023-04-14T02:32:10.399Z,87228.00
2023-04-14T02:33:10.401Z,87226.00
2023-04-14T02:34:10.396Z,87226.00
2023-04-14T02:35:10.387Z,87224.00
2023-04-14T02:36:10.378Z,87226.00
2023-04-14T02:37:10.379Z,87224.00
2023-04-14T02:38:10.355Z,87224.00
2023-04-14T02:39:10.335Z,87224.00
2023-04-14T02:40:10.308Z,87222.00
2023-04-14T02:41:10.318Z,87218.00
2023-04-14T02:42:10.281Z,87216.00
2023-04-14T02:43:10.280Z,87218.00
2023-04-14T02:44:10.269Z,87220.00
2023-04-14T02:45:10.250Z,87220.00
2023-04-14T02:46:10.329Z,87226.00
2023-04-14T02:47:10.222Z,87230.00
2023-04-14T02:48:10.211Z,87243.00
2023-04-14T02:50:10.199Z,87247.00
2023-04-14T02:51:10.170Z,87249.00
2023-04-14T02:52:10.161Z,87245.00
2023-04-14T02:53:10.151Z,87245.00
2023-04-14T02:54:10.151Z,87245.00
2023-04-14T02:55:10.136Z,87245.00
2023-04-14T02:56:10.124Z,87243.00
2023-04-14T02:57:10.132Z,87243.00
2023-04-14T02:58:10.134Z,87234.00
2023-04-14T02:59:10.135Z,87228.00
2023-04-14T03:00:10.103Z,87226.00
2023-04-14T03:01:10.145Z,87224.00
2023-04-14T03:02:10.225Z,87224.00
2023-04-14T03:03:10.356Z,87218.00
2023-04-14T03:04:10.103Z,87216.00
2023-04-14T03:05:10.075Z,87220.00
2023-04-14T03:06:10.055Z,87218.00
2023-04-14T03:07:10.057Z,87212.00
2023-04-14T03:08:10.049Z,87211.00
2023-04-14T03:09:10.054Z,87209.00
2023-04-14T03:10:10.084Z,87211.00
2023-04-14T03:11:10.075Z,87205.00
2023-04-14T03:12:10.070Z,87205.00
2023-04-14T03:13:10.075Z,87205.00
2023-04-14T03:14:10.129Z,87205.00
2023-04-14T03:15:10.203Z,87201.00
2023-04-14T03:16:10.329Z,87201.00
2023-04-14T03:17:10.371Z,87203.00
2023-04-14T03:18:10.368Z,87205.00
2023-04-14T03:19:10.434Z,87205.00
2023-04-14T03:20:10.378Z,87203.00
2023-04-14T03:21:10.405Z,87207.00
2023-04-14T03:22:10.408Z,87201.00
2023-04-14T03:23:10.407Z,87201.00
2023-04-14T03:24:10.417Z,87207.00
2023-04-14T03:25:10.437Z,87209.00
2023-04-14T03:26:10.455Z,87209.00
2023-04-14T03:27:10.504Z,87211.00
2023-04-14T03:28:10.552Z,87211.00
2023-04-14T03:29:10.596Z,87212.00
2023-04-14T03:30:10.650Z,87212.00
2023-04-14T03:31:10.761Z,87212.00
2023-04-14T03:32:10.734Z,87211.00
2023-04-14T03:33:10.764Z,87212.00
2023-04-14T03:34:10.841Z,87209.00
2023-04-14T03:35:10.877Z,87211.00
2023-04-14T03:36:10.939Z,87216.00
2023-04-14T03:37:10.994Z,87212.00
2023-04-14T03:38:11.056Z,87214.00
2023-04-14T03:39:11.103Z,87216.00
2023-04-14T03:40:11.153Z,87211.00
2023-04-14T03:41:11.203Z,87211.00
2023-04-14T03:42:11.227Z,87209.00
2023-04-14T03:43:11.259Z,87209.00
2023-04-14T03:44:11.301Z,87209.00
2023-04-14T03:45:11.313Z,87207.00
2023-04-14T03:46:11.408Z,87205.00
2023-04-14T03:47:11.383Z,87209.00
2023-04-14T03:48:11.418Z,87207.00
2023-04-14T03:49:11.501Z,87209.00
2023-04-14T03:50:11.545Z,87205.00
2023-04-14T03:51:11.541Z,87205.00
2023-04-14T03:52:11.616Z,87201.00
2023-04-14T03:53:11.616Z,87201.00
2023-04-14T03:54:11.620Z,87199.00
2023-04-14T03:55:11.639Z,87201.00
2023-04-14T03:56:11.680Z,87199.00
2023-04-14T03:57:11.698Z,87203.00
2023-04-14T03:58:11.719Z,87211.00
2023-04-14T03:59:11.737Z,87207.00
2023-04-14T04:00:11.743Z,87207.00
2023-04-14T04:01:11.769Z,87205.00
2023-04-14T04:02:11.867Z,87207.00
2023-04-14T04:03:11.989Z,87211.00
2023-04-14T04:04:11.872Z,87209.00
2023-04-14T04:05:11.847Z,87207.00
2023-04-14T04:06:11.876Z,87209.00
2023-04-14T04:07:11.881Z,87212.00
2023-04-14T04:08:11.898Z,87212.00
2023-04-14T04:09:11.919Z,87211.00
2023-04-14T04:10:11.930Z,87212.00
2023-04-14T04:11:11.954Z,87216.00
2023-04-14T04:12:11.970Z,87216.00
2023-04-14T04:13:12.003Z,87216.00
2023-04-14T04:14:12.020Z,87216.00
2023-04-14T04:15:12.054Z,87218.00
2023-04-14T04:16:12.079Z,87218.00
2023-04-14T04:17:12.085Z,87216.00
2023-04-14T04:18:12.125Z,87212.00
2023-04-14T04:19:12.138Z,87218.00
2023-04-14T04:20:12.168Z,87218.00
2023-04-14T04:21:12.184Z,87212.00
2023-04-14T04:22:12.212Z,87214.00
2023-04-14T04:23:12.246Z,87216.00
2023-04-14T04:24:12.269Z,87220.00
2023-04-14T04:25:12.289Z,87218.00
2023-04-14T04:26:12.319Z,87214.00
2023-04-14T04:27:26.425Z,87218.00
2023-04-14T04:28:13.368Z,87218.00
2023-04-14T04:29:12.368Z,87218.00
2023-04-14T04:30:12.419Z,87218.00
2023-04-14T04:31:12.389Z,87220.00
2023-04-14T04:32:12.460Z,87222.00
2023-04-14T04:33:12.453Z,87218.00
2023-04-14T04:34:12.445Z,87216.00
2023-04-14T04:35:12.439Z,87222.00
2023-04-14T04:36:12.452Z,87224.00
2023-04-14T04:37:12.490Z,87216.00
2023-04-14T04:38:12.492Z,87214.00
2023-04-14T04:39:12.516Z,87220.00
2023-04-14T04:40:12.518Z,87222.00
2023-04-14T04:41:12.546Z,87214.00
2023-04-14T04:42:12.569Z,87214.00
2023-04-14T04:43:12.590Z,87216.00
2023-04-14T04:44:12.600Z,87220.00
2023-04-14T04:45:12.640Z,87216.00
2023-04-14T04:46:12.798Z,87214.00
2023-04-14T04:47:12.675Z,87216.00
2023-04-14T04:48:12.689Z,87222.00
2023-04-14T04:49:12.696Z,87214.00
2023-04-14T04:50:12.719Z,87212.00
2023-04-14T04:51:12.732Z,87211.00
2023-04-14T04:52:12.748Z,87216.00
2023-04-14T04:53:12.778Z,87214.00
2023-04-14T04:54:12.809Z,87209.00
2023-04-14T04:55:12.828Z,87209.00
2023-04-14T04:56:12.851Z,87216.00
2023-04-14T04:57:12.860Z,87214.00
2023-04-14T04:58:12.893Z,87212.00
2023-04-14T04:59:12.912Z,87214.00
2023-04-14T05:00:12.958Z,87214.00
2023-04-14T05:01:12.989Z,87211.00
2023-04-14T05:02:13.020Z,87207.00
2023-04-14T05:03:13.077Z,87211.00
2023-04-14T05:04:13.057Z,87211.00
2023-04-14T05:05:13.045Z,87211.00
2023-04-14T05:06:13.046Z,87212.00
2023-04-14T05:07:13.079Z,87216.00
2023-04-14T05:08:15.077Z,87212.00
2023-04-14T05:09:13.104Z,87214.00
2023-04-14T05:10:13.128Z,87216.00
2023-04-14T05:11:13.154Z,87218.00
2023-04-14T05:12:13.188Z,87218.00
2023-04-14T05:13:13.231Z,87220.00
2023-04-14T05:14:13.279Z,87222.00
2023-04-14T05:15:13.313Z,87222.00
2023-04-14T05:16:13.398Z,87222.00
2023-04-14T05:17:13.394Z,87224.00
2023-04-14T05:18:13.444Z,87224.00
2023-04-14T05:19:13.479Z,87224.00
2023-04-14T05:20:13.511Z,87230.00
2023-04-14T05:21:13.538Z,87228.00
2023-04-14T05:22:13.568Z,87228.00
2023-04-14T05:23:13.587Z,87228.00
2023-04-14T05:24:13.612Z,87226.00
2023-04-14T05:25:13.646Z,87226.00
2023-04-14T05:26:38.966Z,87226.00
2023-04-14T05:27:14.945Z,87226.00
2023-04-14T05:28:13.708Z,87224.00
2023-04-14T05:29:13.743Z,87224.00
2023-04-14T05:30:13.737Z,87234.00
2023-04-14T05:31:13.762Z,87232.00
2023-04-14T05:32:13.751Z,87232.00
2023-04-14T05:33:13.788Z,87241.00
2023-04-14T05:34:13.777Z,87234.00
2023-04-14T05:35:13.777Z,87245.00
2023-04-14T05:36:13.787Z,87247.00
2023-04-14T05:37:13.829Z,87249.00
2023-04-14T05:38:13.893Z,87247.00
2023-04-14T05:39:13.968Z,87247.00
2023-04-14T05:40:14.024Z,87253.00
2023-04-14T05:41:14.100Z,87249.00
2023-04-14T05:42:14.128Z,87253.00
2023-04-14T05:43:14.194Z,87257.00
2023-04-14T05:44:14.242Z,87261.00
2023-04-14T05:45:14.301Z,87261.00
2023-04-14T05:46:14.398Z,87259.00
2023-04-14T05:47:14.398Z,87257.00
2023-04-14T05:48:14.429Z,87257.00
2023-04-14T05:49:14.498Z,87257.00
2023-04-14T05:50:14.519Z,87257.00
2023-04-14T05:51:14.561Z,87259.00
2023-04-14T05:52:14.605Z,87257.00
2023-04-14T05:53:14.673Z,87255.00
2023-04-14T05:54:14.740Z,87257.00
2023-04-14T05:55:14.809Z,87257.00
2023-04-14T05:56:14.958Z,87259.00
2023-04-14T05:57:14.983Z,87261.00
2023-04-14T05:58:15.057Z,87259.00
2023-04-14T05:59:15.128Z,87259.00
2023-04-14T06:00:15.201Z,87259.00
2023-04-14T06:01:15.310Z,87261.00
2023-04-14T06:02:15.422Z,87261.00
2023-04-14T06:03:15.638Z,87263.00
2023-04-14T06:04:15.700Z,87263.00
2023-04-14T06:05:15.653Z,87264.00
2023-04-14T06:06:15.585Z,87266.00
2023-04-14T06:07:15.580Z,87271.00
2023-04-14T06:08:15.582Z,87271.00
2023-04-14T06:09:15.581Z,87269.00
2023-04-14T06:10:15.566Z,87269.00
2023-04-14T06:11:15.560Z,87269.00
2023-04-14T06:12:15.549Z,87266.00
2023-04-14T06:13:15.550Z,87264.00
2023-04-14T06:14:15.559Z,87263.00
2023-04-14T06:15:15.598Z,87264.00
2023-04-14T06:16:15.575Z,87263.00
2023-04-14T06:17:15.597Z,87264.00
2023-04-14T06:18:15.667Z,87266.00
2023-04-14T06:19:15.717Z,87266.00
2023-04-14T06:20:15.756Z,87269.00
2023-04-14T06:21:15.836Z,87272.00
2023-04-14T06:22:15.858Z,87269.00
2023-04-14T06:23:15.910Z,87272.00
2023-04-14T06:24:15.968Z,87276.00
2023-04-14T06:25:16.002Z,87274.00
2023-04-14T06:26:16.035Z,87274.00
2023-04-14T06:27:16.103Z,87278.00
2023-04-14T06:28:16.139Z,87278.00
2023-04-14T06:29:16.198Z,87274.00
2023-04-14T06:30:16.201Z,87278.00
2023-04-14T06:31:16.279Z,87274.00
2023-04-14T06:32:16.401Z,87274.00
2023-04-14T06:33:16.325Z,87271.00
2023-04-14T06:34:16.367Z,87274.00
2023-04-14T06:35:29.741Z,87269.00
2023-04-14T06:36:17.383Z,87271.00
2023-04-14T06:37:16.376Z,87269.00
2023-04-14T06:38:16.382Z,87269.00
2023-04-14T06:39:16.405Z,87272.00
2023-04-14T06:40:16.380Z,87271.00
2023-04-14T06:41:16.382Z,87271.00
2023-04-14T06:42:16.354Z,87271.00
2023-04-14T06:43:16.336Z,87272.00
2023-04-14T06:44:16.342Z,87269.00
2023-04-14T06:45:16.322Z,87271.00
2023-04-14T06:46:16.373Z,87271.00
2023-04-14T06:47:16.315Z,87272.00
2023-04-14T06:48:16.343Z,87274.00
2023-04-14T06:49:16.289Z,87271.00
2023-04-14T06:50:16.270Z,87272.00
2023-04-14T06:51:16.271Z,87274.00
2023-04-14T06:52:16.315Z,87274.00
2023-04-14T06:53:16.355Z,87271.00
2023-04-14T06:54:16.414Z,87274.00
2023-04-14T06:55:16.491Z,87271.00
2023-04-14T06:56:16.526Z,87271.00
2023-04-14T06:57:16.586Z,87272.00
2023-04-14T06:58:16.722Z,87274.00
2023-04-14T06:59:16.758Z,87276.00
2023-04-14T07:00:16.753Z,87276.00
2023-04-14T07:01:16.862Z,87282.00
2023-04-14T07:02:16.899Z,87284.00
2023-04-14T07:03:16.990Z,87286.00
2023-04-14T07:04:17.026Z,87288.00
2023-04-14T07:05:17.044Z,87286.00
2023-04-14T07:07:17.178Z,87286.00
2023-04-14T07:08:17.231Z,87286.00
2023-04-14T07:09:17.305Z,87288.00
2023-04-14T07:10:17.340Z,87284.00
2023-04-14T07:11:17.403Z,87284.00
2023-04-14T07:12:17.474Z,87284.00
2023-04-14T07:13:17.529Z,87286.00
2023-04-14T07:14:17.558Z,87288.00
2023-04-14T07:15:17.549Z,87286.00
2023-04-14T07:16:17.571Z,87288.00
2023-04-14T07:17:17.581Z,87286.00
2023-04-14T07:18:17.567Z,87290.00
2023-04-14T07:19:17.575Z,87292.00
2023-04-14T07:20:17.580Z,87292.00
2023-04-14T07:21:17.588Z,87298.00
2023-04-14T07:22:17.583Z,87296.00
2023-04-14T07:23:17.577Z,87294.00
2023-04-14T07:24:17.581Z,87298.00
2023-04-14T07:25:17.572Z,87298.00
2023-04-14T07:26:17.584Z,87296.00
2023-04-14T07:27:17.650Z,87300.00
2023-04-14T07:28:17.587Z,87296.00
2023-04-14T07:29:17.590Z,87298.00
2023-04-14T07:30:17.612Z,87296.00
2023-04-14T07:31:17.686Z,87298.00
2023-04-14T07:32:17.597Z,87300.00
2023-04-14T07:33:17.598Z,87300.00
2023-04-14T07:34:17.618Z,87296.00
2023-04-14T07:35:17.614Z,87298.00
2023-04-14T07:36:17.662Z,87300.00
2023-04-14T07:37:17.733Z,87300.00
2023-04-14T07:38:17.796Z,87300.00
2023-04-14T07:39:17.800Z,87300.00
2023-04-14T07:40:17.801Z,87304.00
2023-04-14T07:41:17.801Z,87306.00
2023-04-14T07:42:17.802Z,87306.00
2023-04-14T07:43:17.789Z,87306.00
2023-04-14T07:44:17.792Z,87306.00
2023-04-14T07:45:17.785Z,87308.00
2023-04-14T07:46:17.828Z,87308.00
2023-04-14T07:47:17.873Z,87308.00
2023-04-14T07:48:17.826Z,87308.00
2023-04-14T07:49:17.824Z,87312.00
2023-04-14T07:50:19.829Z,87308.00
2023-04-14T07:51:17.834Z,87308.00
2023-04-14T07:52:17.828Z,87310.00
2023-04-14T07:53:17.818Z,87310.00
2023-04-14T07:54:17.825Z,87308.00
2023-04-14T07:55:17.839Z,87310.00
2023-04-14T07:56:17.849Z,87308.00
2023-04-14T07:57:17.828Z,87308.00
2023-04-14T07:58:17.875Z,87310.00
2023-04-14T07:59:17.943Z,87312.00
2023-04-14T08:00:17.959Z,87312.00
2023-04-14T08:01:17.955Z,87312.00
2023-04-14T08:02:17.993Z,87316.00
2023-04-14T08:03:18.062Z,87320.00
2023-04-14T08:04:17.981Z,87322.00
2023-04-14T08:05:18.000Z,87320.00
2023-04-14T08:06:17.923Z,87322.00
2023-04-14T08:07:17.914Z,87320.00
2023-04-14T08:08:17.926Z,87322.00
2023-04-14T08:09:17.918Z,87322.00
2023-04-14T08:10:17.913Z,87324.00
2023-04-14T08:11:17.886Z,87322.00
2023-04-14T08:12:17.883Z,87326.00
2023-04-14T08:13:17.852Z,87326.00
2023-04-14T08:14:17.852Z,87326.00
2023-04-14T08:15:17.832Z,87326.00
2023-04-14T08:16:17.825Z,87327.00
2023-04-14T08:17:17.926Z,87326.00
2023-04-14T08:18:17.781Z,87327.00
2023-04-14T08:19:17.762Z,87326.00
2023-04-14T08:20:17.759Z,87326.00
2023-04-14T08:21:17.729Z,87327.00
2023-04-14T08:22:17.714Z,87327.00
2023-04-14T08:23:17.704Z,87327.00
2023-04-14T08:24:17.690Z,87331.00
2023-04-14T08:25:17.683Z,87329.00
2023-04-14T08:26:17.665Z,87333.00
2023-04-14T08:27:17.650Z,87329.00
2023-04-14T08:28:17.639Z,87333.00
2023-04-14T08:29:17.613Z,87335.00
2023-04-14T08:30:17.606Z,87333.00
2023-04-14T08:31:17.626Z,87333.00
2023-04-14T08:32:17.579Z,87339.00
2023-04-14T08:33:17.569Z,87335.00
2023-04-14T08:34:28.638Z,87337.00
2023-04-14T08:35:36.226Z,87339.00
2023-04-14T08:36:18.520Z,87341.00
2023-04-14T08:37:17.499Z,87337.00
2023-04-14T08:38:17.495Z,87337.00
2023-04-14T08:39:17.481Z,87335.00
2023-04-14T08:40:17.486Z,87331.00
2023-04-14T08:41:17.463Z,87333.00
2023-04-14T08:42:17.453Z,87333.00
2023-04-14T08:43:17.425Z,87331.00
2023-04-14T08:44:17.416Z,87329.00
2023-04-14T08:45:17.396Z,87333.00
2023-04-14T08:46:17.423Z,87333.00
2023-04-14T08:47:17.399Z,87331.00
2023-04-14T08:48:17.361Z,87331.00
2023-04-14T08:49:17.332Z,87333.00
2023-04-14T08:50:17.395Z,87335.00
2023-04-14T08:51:17.302Z,87333.00
2023-04-14T08:52:17.264Z,87333.00
2023-04-14T08:53:17.238Z,87333.00
2023-04-14T08:54:17.220Z,87333.00
2023-04-14T08:55:17.201Z,87335.00
2023-04-14T08:56:17.230Z,87333.00
2023-04-14T08:57:17.138Z,87333.00
2023-04-14T08:58:17.119Z,87331.00
2023-04-14T08:59:17.093Z,87333.00
2023-04-14T09:00:17.089Z,87329.00
2023-04-14T09:01:17.089Z,87335.00
2023-04-14T09:02:17.089Z,87329.00
2023-04-14T09:03:17.105Z,87329.00
2023-04-14T09:04:17.169Z,87329.00
2023-04-14T09:05:16.990Z,87329.00
2023-04-14T09:06:16.948Z,87331.00
2023-04-14T09:07:16.942Z,87329.00
2023-04-14T09:08:16.938Z,87329.00
2023-04-14T09:09:16.875Z,87329.00
2023-04-14T09:10:16.858Z,87333.00
2023-04-14T09:11:16.825Z,87331.00
2023-04-14T09:12:16.801Z,87331.00
2023-04-14T09:13:16.805Z,87337.00
2023-04-14T09:14:16.757Z,87335.00
2023-04-14T09:15:16.731Z,87337.00
2023-04-14T09:16:16.749Z,87337.00
2023-04-14T09:17:16.849Z,87341.00
2023-04-14T09:18:16.666Z,87341.00
2023-04-14T09:19:16.654Z,87341.00
2023-04-14T09:20:38.354Z,87345.00
2023-04-14T09:21:34.139Z,87345.00
2023-04-14T09:22:17.597Z,87345.00
2023-04-14T09:23:16.582Z,87349.00
2023-04-14T09:24:16.582Z,87349.00
2023-04-14T09:25:16.547Z,87347.00
2023-04-14T09:26:16.518Z,87351.00
2023-04-14T09:27:16.506Z,87353.00
2023-04-14T09:28:16.505Z,87351.00
2023-04-14T09:29:16.476Z,87349.00
2023-04-14T09:30:16.452Z,87355.00
2023-04-14T09:31:16.473Z,87355.00
2023-04-14T09:32:16.415Z,87355.00
2023-04-14T09:33:16.437Z,87355.00
2023-04-14T09:34:16.555Z,87357.00
2023-04-14T09:35:16.393Z,87361.00
2023-04-14T09:36:16.333Z,87359.00
2023-04-14T09:37:16.319Z,87363.00
2023-04-14T09:38:16.316Z,87367.00
2023-04-14T09:39:16.278Z,87365.00
2023-04-14T09:40:16.255Z,87369.00
2023-04-14T09:41:16.223Z,87365.00
2023-04-14T09:42:16.199Z,87367.00
2023-04-14T09:43:16.186Z,87369.00
2023-04-14T09:44:16.154Z,87367.00
2023-04-14T09:45:16.138Z,87367.00
2023-04-14T09:46:16.148Z,87371.00
2023-04-14T09:47:16.106Z,87369.00
2023-04-14T09:48:16.093Z,87361.00
2023-04-14T09:49:16.113Z,87361.00
2023-04-14T09:50:16.092Z,87363.00
2023-04-14T09:51:16.090Z,87369.00
2023-04-14T09:52:16.097Z,87365.00
2023-04-14T09:53:16.091Z,87365.00
2023-04-14T09:54:16.087Z,87367.00
2023-04-14T09:55:16.115Z,87363.00
2023-04-14T09:56:16.098Z,87361.00
2023-04-14T09:57:16.092Z,87361.00
2023-04-14T09:58:16.091Z,87359.00
2023-04-14T09:59:16.096Z,87361.00
2023-04-14T10:00:16.120Z,87359.00
2023-04-14T10:01:16.314Z,87365.00
2023-04-14T10:02:16.155Z,87363.00
2023-04-14T10:03:16.136Z,87361.00
2023-04-14T10:04:16.110Z,87363.00
2023-04-14T10:05:16.162Z,87361.00
2023-04-14T10:06:16.107Z,87361.00
2023-04-14T10:07:16.126Z,87359.00
2023-04-14T10:08:16.134Z,87357.00
2023-04-14T10:09:16.140Z,87357.00
2023-04-14T10:10:16.144Z,87359.00
2023-04-14T10:11:16.155Z,87359.00
2023-04-14T10:12:16.200Z,87361.00
2023-04-14T10:13:16.267Z,87357.00
2023-04-14T10:14:16.324Z,87357.00
2023-04-14T10:15:16.391Z,87357.00
2023-04-14T10:16:16.530Z,87353.00
2023-04-14T10:17:16.498Z,87353.00
2023-04-14T10:18:16.566Z,87353.00
2023-04-14T10:19:16.496Z,87351.00
2023-04-14T10:20:16.488Z,87353.00
2023-04-14T10:21:16.475Z,87359.00
2023-04-14T10:22:16.441Z,87357.00
2023-04-14T10:23:16.429Z,87353.00
2023-04-14T10:24:16.403Z,87351.00
2023-04-14T10:25:16.379Z,87353.00
2023-04-14T10:26:16.439Z,87351.00
2023-04-14T10:27:16.348Z,87353.00
2023-04-14T10:28:16.338Z,87355.00
2023-04-14T10:29:16.331Z,87355.00
2023-04-14T10:30:16.283Z,87351.00
2023-04-14T10:31:16.298Z,87353.00
2023-04-14T10:32:16.253Z,87351.00
2023-04-14T10:33:16.240Z,87353.00
2023-04-14T10:34:16.224Z,87351.00
2023-04-14T10:35:16.218Z,87353.00
2023-04-14T10:36:16.211Z,87353.00
2023-04-14T10:37:16.221Z,87353.00
2023-04-14T10:38:16.179Z,87353.00
2023-04-14T10:39:16.195Z,87357.00
2023-04-14T10:40:16.172Z,87359.00
2023-04-14T10:41:16.133Z,87359.00
2023-04-14T10:42:16.104Z,87357.00
2023-04-14T10:43:16.088Z,87359.00
2023-04-14T10:44:16.066Z,87359.00
2023-04-14T10:45:16.081Z,87359.00
2023-04-14T10:46:18.470Z,87361.00
2023-04-14T10:47:16.268Z,87355.00
2023-04-14T10:48:16.281Z,87357.00
2023-04-14T10:49:16.314Z,87357.00
2023-04-14T10:50:16.350Z,87351.00
2023-04-14T10:51:16.378Z,87353.00
2023-04-14T10:52:16.433Z,87353.00
2023-04-14T10:53:16.488Z,87351.00
2023-04-14T10:54:16.529Z,87353.00
2023-04-14T10:55:16.536Z,87351.00
2023-04-14T10:56:16.559Z,87349.00
2023-04-14T10:57:16.604Z,87345.00
2023-04-14T10:58:16.625Z,87347.00
2023-04-14T10:59:16.683Z,87343.00
2023-04-14T11:00:16.833Z,87347.00
2023-04-14T11:01:16.811Z,87345.00
2023-04-14T11:02:16.867Z,87343.00
2023-04-14T11:03:17.027Z,87345.00
2023-04-14T11:04:17.098Z,87341.00
2023-04-14T11:05:16.950Z,87343.00
2023-04-14T11:06:17.006Z,87339.00
2023-04-14T11:07:17.042Z,87341.00
2023-04-14T11:08:17.083Z,87339.00
2023-04-14T11:09:17.066Z,87339.00
2023-04-14T11:10:17.072Z,87337.00
2023-04-14T11:11:17.017Z,87343.00
2023-04-14T11:12:16.985Z,87333.00
2023-04-14T11:13:17.912Z,87339.00
2023-04-14T11:14:16.934Z,87333.00
2023-04-14T11:15:16.977Z,87339.00
2023-04-14T11:16:16.988Z,87337.00
2023-04-14T11:17:16.920Z,87341.00
2023-04-14T11:18:16.969Z,87339.00
2023-04-14T11:19:16.812Z,87341.00
2023-04-14T11:20:16.890Z,87343.00
2023-04-14T11:21:16.749Z,87345.00
2023-04-14T11:22:16.709Z,87337.00
2023-04-14T11:23:16.720Z,87337.00
2023-04-14T11:24:16.720Z,87341.00
2023-04-14T11:25:16.749Z,87339.00
2023-04-14T11:26:16.769Z,87337.00
2023-04-14T11:27:16.803Z,87331.00
2023-04-14T11:28:16.803Z,87329.00
2023-04-14T11:29:16.835Z,87327.00
2023-04-14T11:30:16.906Z,87324.00
2023-04-14T11:31:16.925Z,87327.00
2023-04-14T11:32:16.921Z,87326.00
2023-04-14T11:33:16.805Z,87326.00
2023-04-14T11:34:16.751Z,87322.00
2023-04-14T11:35:16.719Z,87326.00
2023-04-14T11:36:16.696Z,87329.00
2023-04-14T11:37:16.666Z,87329.00
2023-04-14T11:38:16.645Z,87329.00
2023-04-14T11:39:16.625Z,87329.00
2023-04-14T11:40:16.659Z,87326.00
2023-04-14T11:41:16.583Z,87331.00
2023-04-14T11:42:16.547Z,87333.00
2023-04-14T11:43:16.536Z,87337.00
2023-04-14T11:44:16.578Z,87339.00
2023-04-14T11:45:16.609Z,87339.00
2023-04-14T11:46:16.704Z,87341.00